15:25
Airports
History
Links
Donate
Help keep this website running!
PayPal
Bitcoin
This page is community maintained. The information is intended for PC simulator navigation or reference.
Always use approved charts for navigation.
YDEL
Deloraine (Westhorpe)Edited 30-Jun-2011
Deloraine (Westhorpe) (YDEL)
Deloraine, Tasmania, Australia (7304)
4
Lat/Lng:41° 30' 58.82" S / 146° 37' 59.8" E
-41.516338 / 146.633279
Elevation:927'ft / 283mMSL
ID / ICAO:YDEL
Runways:1
Longest:14-32
Grass 499m / 1,637ft
(Edited 2011-06-30) [ Sign in to Edit ]
Nearby Weather15:13 GMT 2018-01-16
Nearby weather at YMLT, Launceston located 30.0 nautical miles from YDEL
Altimeter: 30.15
Visibility: 6.2 statute miles
Wind: 3 knots (from 050°)
Temp: 13°c / 55°f
Humidity: 76.7%

METAR: YMLT 161513Z AUTO 05003KT 9999 // OVC016 13/09 Q1021

(Powered by phpweather)
Runway 14 / 32
Dimensions:498.9 x 18m 1637' x 59'ft
Surface:Grass
Runway 14 [A]Runway 32 [B]
Heading:154°TH 334°TH
Lat:
Lng:
41° 30' 51.54"S
146° 37' 55.07"E
41° 31' 6.1"S
146° 38' 4.54"E
User Notes and Comments
41° 30' 58.82" S / 146° 37' 59.8" E
Distance To
Airport ID:
Nearby Airports
(C) Hagley 13.3 NM
YLTH E 95°
4 Whitemore (Private) 16.4 NM
YWHI ESE 107°
(C) Devonport 26.2 NM
YDPO NNW 336°
4 Longdown 29.0 NM
YLGD ESE 114°
(C) Launceston 30.0 NM
YMLT ( WX ) E 93°
4 CRANBOURN 31.6 NM
YCRN NE 38°
(U) George Town (TAS) 32.8 NM
YGTO NNE 18°
VFR Chart
Flight Planning at SkyVector.com